Time;durP1;ratioP1;P1;durP2;ratioP2;P2;SDS_P1;SDS_P2;PMS_P1;PMS_P2;Temp;Humidity;BMP_temperature;BMP_pressure;BME280_temperature;BME280_humidity;BME280_pressure;Samples;Min_cycle;Max_cycle;Signal;HPM_P1;HPM_P2
2022/08/23 00:01:03;;;;;;;;;;;12.40;99.90;;;;;;5052389;28;19909;-73
2022/08/23 00:03:29;;;;;;;;;;;12.40;99.90;;;;;;5045888;28;19909;-74
2022/08/23 00:05:54;;;;;;;;;;;12.40;99.90;;;;;;5058483;28;19913;-74
2022/08/23 00:08:20;;;;;;;;;;;12.20;99.90;;;;;;5052042;28;20366;-74
2022/08/23 00:10:45;;;;;;;;;;;12.20;99.90;;;;;;5052209;28;19996;-74
2022/08/23 00:13:11;;;;;;;;;;;12.20;99.90;;;;;;5051788;28;20320;-74
2022/08/23 00:15:36;;;;;;;;;;;12.30;99.90;;;;;;5052252;28;19928;-74
2022/08/23 00:18:02;;;;;;;;;;;12.20;99.90;;;;;;5051681;28;19908;-74
2022/08/23 00:20:27;;;;;;;;;;;12.20;99.90;;;;;;5051970;28;20023;-74
2022/08/23 00:22:53;;;;;;;;;;;12.30;99.90;;;;;;5051668;28;19909;-74
2022/08/23 00:25:19;;;;;;;;;;;12.30;99.90;;;;;;5051773;28;19963;-74
2022/08/23 00:27:44;;;;;;;;;;;12.30;99.90;;;;;;5051923;28;19913;-74
2022/08/23 00:30:11;;;;;;;;;;;12.30;99.90;;;;;;5051826;28;20370;-74
2022/08/23 00:32:38;;;;;;;;;;;12.10;99.90;;;;;;5048664;28;19909;-74
2022/08/23 00:35:04;;;;;;;;;;;12.10;99.90;;;;;;5057446;28;19908;-74
2022/08/23 00:37:31;;;;;;;;;;;12.20;99.90;;;;;;5051612;28;19955;-74
2022/08/23 00:39:57;;;;;;;;;;;12.20;99.90;;;;;;5051899;28;20266;-74
2022/08/23 00:47:53;;;;;;;;;;;12.10;99.90;;;;;;5048305;28;20274;-74
2022/08/23 00:50:34;;;;;;;;;;;12.10;99.90;;;;;;5051482;28;19920;-74
2022/08/23 00:53:06;;;;;;;;;;;12.20;99.90;;;;;;5045516;28;19916;-74
2022/08/23 00:55:32;;;;;;;;;;;12.20;99.90;;;;;;5051506;28;20321;-74
2022/08/23 00:57:58;;;;;;;;;;;12.50;99.90;;;;;;5051432;28;19909;-74
2022/08/23 01:00:24;;;;;;;;;;;12.60;99.90;;;;;;5051171;28;19932;-73
2022/08/23 01:02:50;;;;;;;;;;;12.60;99.90;;;;;;5050969;28;19959;-73
2022/08/23 01:05:16;;;;;;;;;;;12.60;99.90;;;;;;5051074;28;20358;-74
2022/08/23 01:07:51;;;;;;;;;;;12.30;99.90;;;;;;5051342;28;20010;-74
2022/08/23 01:10:20;;;;;;;;;;;12.20;99.90;;;;;;5036287;28;19976;-74
2022/08/23 01:12:49;;;;;;;;;;;12.10;99.90;;;;;;5050972;28;20002;-74
2022/08/23 01:15:23;;;;;;;;;;;12.00;99.90;;;;;;5051175;28;19915;-74
2022/08/23 01:17:53;;;;;;;;;;;11.90;99.90;;;;;;5051330;28;19955;-74
2022/08/23 01:20:21;;;;;;;;;;;11.80;99.90;;;;;;5051266;28;19915;-74
2022/08/23 01:22:52;;;;;;;;;;;11.70;99.90;;;;;;5051085;28;19909;-74
2022/08/23 01:25:20;;;;;;;;;;;11.70;99.90;;;;;;5049673;28;19909;-72
2022/08/23 01:27:46;;;;;;;;;;;11.70;99.90;;;;;;5051085;28;19999;-74
2022/08/23 01:30:12;;;;;;;;;;;11.80;99.90;;;;;;5051252;28;20028;-74
2022/08/23 01:33:04;;;;;;;;;;;11.90;99.90;;;;;;5055447;28;19909;-74
2022/08/23 01:35:34;;;;;;;;;;;11.80;99.90;;;;;;5057322;28;19916;-74
2022/08/23 01:37:59;;;;;;;;;;;11.70;99.90;;;;;;5048873;28;19916;-74
2022/08/23 01:40:26;;;;;;;;;;;11.60;99.90;;;;;;5055167;28;20366;-74
2022/08/23 01:42:52;;;;;;;;;;;11.60;99.90;;;;;;5048629;28;19913;-74
2022/08/23 01:45:17;;;;;;;;;;;11.60;99.90;;;;;;5054887;28;20266;-74
2022/08/23 01:47:43;;;;;;;;;;;11.60;99.90;;;;;;5054988;28;20290;-74
2022/08/23 01:50:10;;;;;;;;;;;11.50;99.90;;;;;;5054785;28;20401;-73
2022/08/23 01:52:36;;;;;;;;;;;11.50;99.90;;;;;;5054581;28;20364;-74
2022/08/23 01:55:03;;;;;;;;;;;11.50;99.90;;;;;;5054507;28;19927;-74
2022/08/23 01:57:29;;;;;;;;;;;11.50;99.90;;;;;;5053430;28;19916;-74
2022/08/23 01:59:56;;;;;;;;;;;11.50;99.90;;;;;;5054799;28;20298;-74
2022/08/23 02:02:21;;;;;;;;;;;11.40;99.90;;;;;;5052682;28;19913;-74
2022/08/23 02:04:47;;;;;;;;;;;11.40;99.90;;;;;;5054043;28;19916;-72
2022/08/23 02:07:12;;;;;;;;;;;11.40;99.90;;;;;;5054570;28;19913;-74
2022/08/23 02:09:38;;;;;;;;;;;11.40;99.90;;;;;;5054364;28;19924;-74
2022/08/23 02:12:04;;;;;;;;;;;11.40;99.90;;;;;;5054249;28;20374;-74
2022/08/23 02:14:30;;;;;;;;;;;11.60;99.90;;;;;;5054043;28;19909;-73
2022/08/23 02:16:57;;;;;;;;;;;11.60;99.90;;;;;;5052957;28;19915;-73
2022/08/23 02:19:23;;;;;;;;;;;11.50;99.90;;;;;;5053819;28;19916;-74
2022/08/23 02:21:49;;;;;;;;;;;11.40;99.90;;;;;;5054284;28;20289;-74
2022/08/23 02:24:19;;;;;;;;;;;11.30;99.90;;;;;;5054276;28;19992;-74
2022/08/23 02:26:47;;;;;;;;;;;11.20;99.90;;;;;;5054269;28;19935;-74
2022/08/23 02:29:13;;;;;;;;;;;11.20;99.90;;;;;;5054086;28;19958;-74
2022/08/23 02:31:39;;;;;;;;;;;11.30;99.90;;;;;;5054142;28;19953;-74
2022/08/23 02:34:05;;;;;;;;;;;11.10;99.90;;;;;;5053673;28;19960;-73
2022/08/23 02:36:31;;;;;;;;;;;11.10;99.90;;;;;;5052860;28;19908;-74
2022/08/23 02:38:57;;;;;;;;;;;11.10;99.90;;;;;;5054054;28;19964;-74
2022/08/23 02:41:23;;;;;;;;;;;11.00;99.90;;;;;;5052135;28;19959;-74
2022/08/23 02:43:52;;;;;;;;;;;11.10;99.90;;;;;;5051667;28;19909;-74
2022/08/23 02:46:17;;;;;;;;;;;11.20;99.90;;;;;;5053523;28;19959;-74
2022/08/23 02:48:43;;;;;;;;;;;11.10;99.90;;;;;;5053552;28;19909;-73
2022/08/23 02:51:09;;;;;;;;;;;11.00;99.90;;;;;;5056880;28;20381;-73
2022/08/23 02:53:35;;;;;;;;;;;10.90;99.90;;;;;;5053163;28;20027;-73
2022/08/23 02:56:00;;;;;;;;;;;11.00;99.90;;;;;;5053500;28;20259;-73
2022/08/23 02:58:26;;;;;;;;;;;11.00;99.90;;;;;;5053446;28;19916;-74
2022/08/23 03:00:52;;;;;;;;;;;10.90;99.90;;;;;;5053417;28;19913;-73
2022/08/23 03:03:18;;;;;;;;;;;11.00;99.90;;;;;;5053004;28;20309;-73
2022/08/23 03:05:44;;;;;;;;;;;11.10;99.90;;;;;;5053404;28;19948;-73
2022/08/23 03:08:09;;;;;;;;;;;11.10;99.90;;;;;;5053317;28;19993;-73
2022/08/23 03:10:35;;;;;;;;;;;11.10;99.90;;;;;;5051927;28;19920;-73
2022/08/23 03:13:01;;;;;;;;;;;11.10;99.90;;;;;;5051706;28;19916;-73
2022/08/23 03:15:27;;;;;;;;;;;11.10;99.90;;;;;;5051708;28;19908;-73
2022/08/23 03:17:52;;;;;;;;;;;11.00;99.90;;;;;;5053161;28;19909;-74
2022/08/23 03:20:18;;;;;;;;;;;10.90;99.90;;;;;;5052756;28;19963;-74
2022/08/23 03:22:44;;;;;;;;;;;10.70;99.90;;;;;;5058746;28;19916;-73
2022/08/23 03:25:09;;;;;;;;;;;10.60;99.90;;;;;;5046159;28;19909;-73
2022/08/23 03:27:35;;;;;;;;;;;10.80;99.90;;;;;;5053007;28;20358;-73
2022/08/23 03:30:00;;;;;;;;;;;10.70;99.90;;;;;;5052673;28;20488;-73
2022/08/23 03:32:26;;;;;;;;;;;10.80;99.90;;;;;;5052619;28;19913;-74
2022/08/23 03:34:52;;;;;;;;;;;10.80;99.90;;;;;;5052340;28;19916;-74
2022/08/23 03:37:18;;;;;;;;;;;10.80;99.90;;;;;;5052894;28;19913;-74
2022/08/23 03:39:43;;;;;;;;;;;10.70;99.90;;;;;;5052662;28;19908;-74
2022/08/23 03:42:09;;;;;;;;;;;10.60;99.90;;;;;;5052187;28;20000;-74
2022/08/23 03:44:34;;;;;;;;;;;10.50;99.90;;;;;;5052696;28;19977;-74
2022/08/23 03:47:01;;;;;;;;;;;10.40;99.90;;;;;;5053052;28;19932;-74
2022/08/23 03:49:26;;;;;;;;;;;10.40;99.90;;;;;;5050343;28;20064;-74
2022/08/23 03:51:52;;;;;;;;;;;10.40;99.90;;;;;;5052190;28;20001;-73
2022/08/23 03:54:17;;;;;;;;;;;10.60;99.90;;;;;;5051548;28;19916;-73
2022/08/23 03:56:52;;;;;;;;;;;10.60;99.90;;;;;;5052684;28;19909;-74
2022/08/23 03:59:17;;;;;;;;;;;10.60;99.90;;;;;;5052509;28;19909;-74
2022/08/23 04:01:43;;;;;;;;;;;10.40;99.90;;;;;;5052359;28;19909;-74
2022/08/23 04:04:08;;;;;;;;;;;10.40;99.90;;;;;;5052188;28;20354;-74
2022/08/23 04:06:34;;;;;;;;;;;10.40;99.90;;;;;;5052572;28;20274;-74
2022/08/23 04:08:59;;;;;;;;;;;10.50;99.90;;;;;;5052244;28;19917;-74
2022/08/23 04:11:25;;;;;;;;;;;10.50;99.90;;;;;;5052267;28;19919;-74
2022/08/23 04:13:51;;;;;;;;;;;10.50;99.90;;;;;;5052164;28;19948;-74
2022/08/23 04:16:17;;;;;;;;;;;10.40;99.90;;;;;;5052153;28;19995;-74
2022/08/23 04:18:43;;;;;;;;;;;10.40;99.90;;;;;;5052117;28;20263;-74
2022/08/23 04:21:11;;;;;;;;;;;10.50;99.90;;;;;;5052537;28;20004;-74
2022/08/23 04:23:39;;;;;;;;;;;10.50;99.90;;;;;;5047719;28;19931;-73
2022/08/23 04:26:05;;;;;;;;;;;10.40;99.90;;;;;;5052209;28;19970;-74
2022/08/23 04:28:31;;;;;;;;;;;10.30;99.90;;;;;;5051935;28;20366;-73
2022/08/23 04:30:59;;;;;;;;;;;10.30;99.90;;;;;;5050755;28;19913;-74
2022/08/23 04:33:25;;;;;;;;;;;10.20;99.90;;;;;;5048861;28;19909;-73
2022/08/23 04:35:50;;;;;;;;;;;10.30;99.90;;;;;;5052566;28;19909;-74
2022/08/23 04:38:16;;;;;;;;;;;10.50;99.90;;;;;;5049058;28;19963;-74
2022/08/23 04:43:25;;;;;;;;;;;10.60;99.90;;;;;;5051896;28;19916;-74
2022/08/23 04:45:51;;;;;;;;;;;10.40;99.90;;;;;;5052269;28;19912;-74
2022/08/23 04:48:17;;;;;;;;;;;10.60;99.90;;;;;;5052013;28;19913;-72
2022/08/23 04:50:42;;;;;;;;;;;10.70;99.90;;;;;;5051512;28;19964;-74
2022/08/23 04:53:08;;;;;;;;;;;10.60;99.90;;;;;;5048530;28;19963;-74
2022/08/23 04:55:34;;;;;;;;;;;10.60;99.90;;;;;;5051234;28;19912;-74
2022/08/23 04:57:59;;;;;;;;;;;10.70;99.90;;;;;;5051162;28;20380;-74
2022/08/23 05:00:25;;;;;;;;;;;10.70;99.90;;;;;;5051001;28;19960;-74
2022/08/23 05:02:51;;;;;;;;;;;10.60;99.90;;;;;;5049794;28;19931;-74
2022/08/23 05:05:18;;;;;;;;;;;10.60;99.90;;;;;;5050690;28;19957;-73
2022/08/23 05:07:44;;;;;;;;;;;10.50;99.90;;;;;;5051441;28;20374;-73
2022/08/23 05:10:11;;;;;;;;;;;10.70;99.90;;;;;;5051205;28;19932;-72
2022/08/23 05:12:37;;;;;;;;;;;10.90;99.90;;;;;;5051134;28;19966;-74
2022/08/23 05:15:03;;;;;;;;;;;10.90;99.90;;;;;;5051174;28;19987;-74
2022/08/23 05:17:28;;;;;;;;;;;10.90;99.90;;;;;;5051487;28;19909;-74
2022/08/23 05:19:54;;;;;;;;;;;11.00;99.90;;;;;;5051573;28;19916;-73
2022/08/23 05:22:19;;;;;;;;;;;11.00;99.90;;;;;;5049560;28;19913;-74
2022/08/23 05:24:45;;;;;;;;;;;11.10;99.90;;;;;;5050595;28;19959;-74
2022/08/23 05:27:10;;;;;;;;;;;11.20;99.90;;;;;;5049625;28;19940;-74
2022/08/23 05:29:36;;;;;;;;;;;11.30;99.90;;;;;;5050702;28;19921;-74
2022/08/23 05:32:01;;;;;;;;;;;11.40;99.90;;;;;;5037538;28;20314;-74
2022/08/23 05:34:27;;;;;;;;;;;11.50;99.90;;;;;;5045472;28;19916;-74
2022/08/23 05:36:53;;;;;;;;;;;11.60;99.90;;;;;;5050872;28;19909;-74
2022/08/23 05:39:18;;;;;;;;;;;11.70;99.90;;;;;;5050669;28;19923;-73
2022/08/23 05:41:44;;;;;;;;;;;11.90;99.90;;;;;;5050679;28;19909;-74
2022/08/23 05:44:10;;;;;;;;;;;12.00;99.90;;;;;;5050595;28;19917;-74
2022/08/23 05:46:36;;;;;;;;;;;12.00;99.90;;;;;;5050686;28;19909;-74
2022/08/23 05:49:02;;;;;;;;;;;12.10;99.90;;;;;;5050691;28;19958;-74
2022/08/23 05:51:29;;;;;;;;;;;12.20;99.90;;;;;;5051046;28;20324;-74
2022/08/23 05:53:57;;;;;;;;;;;12.30;99.90;;;;;;5050191;28;19916;-73
2022/08/23 05:56:22;;;;;;;;;;;12.40;99.90;;;;;;5050292;28;19920;-74
2022/08/23 05:58:48;;;;;;;;;;;12.60;99.90;;;;;;5050724;28;19917;-74
2022/08/23 06:01:14;;;;;;;;;;;12.70;99.90;;;;;;5050215;28;19948;-74
2022/08/23 06:03:41;;;;;;;;;;;12.80;99.90;;;;;;5050471;28;20412;-74
2022/08/23 06:06:07;;;;;;;;;;;13.00;99.90;;;;;;5050316;28;19915;-73
2022/08/23 06:08:33;;;;;;;;;;;13.10;99.90;;;;;;5048230;28;20011;-74
2022/08/23 06:11:03;;;;;;;;;;;13.20;99.90;;;;;;5049430;28;19956;-73
2022/08/23 06:13:29;;;;;;;;;;;13.30;99.90;;;;;;5050035;28;19948;-74
2022/08/23 06:15:56;;;;;;;;;;;13.50;99.90;;;;;;5050138;28;19913;-74
2022/08/23 06:18:22;;;;;;;;;;;13.60;99.90;;;;;;5051357;28;20281;-74
2022/08/23 06:20:47;;;;;;;;;;;13.90;99.90;;;;;;5051587;28;19987;-73
2022/08/23 06:23:13;;;;;;;;;;;14.10;99.90;;;;;;5050664;28;20366;-72
2022/08/23 06:25:39;;;;;;;;;;;14.20;99.90;;;;;;5051399;28;19916;-74
2022/08/23 06:28:05;;;;;;;;;;;14.50;99.90;;;;;;5051182;28;19943;-74
2022/08/23 06:30:30;;;;;;;;;;;14.50;99.90;;;;;;5050921;28;20364;-74
2022/08/23 06:32:56;;;;;;;;;;;14.90;99.90;;;;;;5052519;28;19944;-74
2022/08/23 06:35:22;;;;;;;;;;;15.00;99.90;;;;;;5053427;28;19966;-73
2022/08/23 06:37:48;;;;;;;;;;;15.20;99.90;;;;;;5052473;28;19908;-74
2022/08/23 06:40:13;;;;;;;;;;;15.10;99.90;;;;;;5051779;28;20171;-74
2022/08/23 06:42:39;;;;;;;;;;;15.20;99.90;;;;;;5052217;28;19916;-74
2022/08/23 06:45:05;;;;;;;;;;;15.50;99.90;;;;;;5049969;28;20051;-74
2022/08/23 06:47:30;;;;;;;;;;;15.80;99.90;;;;;;5056688;28;19916;-74
2022/08/23 06:49:56;;;;;;;;;;;15.90;99.90;;;;;;5053040;28;19912;-75
2022/08/23 06:52:21;;;;;;;;;;;16.00;99.90;;;;;;5053260;28;19909;-75
2022/08/23 06:54:47;;;;;;;;;;;16.10;99.90;;;;;;5056595;28;19908;-74
2022/08/23 06:57:13;;;;;;;;;;;16.30;99.90;;;;;;5051493;28;19909;-75
2022/08/23 06:59:38;;;;;;;;;;;16.60;99.90;;;;;;5052163;28;19909;-74
2022/08/23 07:02:05;;;;;;;;;;;16.80;99.90;;;;;;5046249;28;19909;-72
2022/08/23 07:04:33;;;;;;;;;;;17.00;99.90;;;;;;5052837;28;19932;-74
2022/08/23 07:07:00;;;;;;;;;;;17.20;99.90;;;;;;5052813;28;19909;-74
2022/08/23 07:09:27;;;;;;;;;;;17.40;99.90;;;;;;5053000;28;19921;-74
2022/08/23 07:11:52;;;;;;;;;;;17.90;99.90;;;;;;5054888;28;19909;-73
2022/08/23 07:14:19;;;;;;;;;;;18.70;99.90;;;;;;5053038;28;20437;-74
2022/08/23 07:16:47;;;;;;;;;;;18.70;99.90;;;;;;5047528;28;19909;-72
2022/08/23 07:19:13;;;;;;;;;;;18.90;99.90;;;;;;5052945;28;19913;-73
2022/08/23 07:21:39;;;;;;;;;;;19.10;99.90;;;;;;5052678;28;20366;-74
2022/08/23 07:24:05;;;;;;;;;;;19.90;99.90;;;;;;5053744;28;19909;-73
2022/08/23 07:26:30;;;;;;;;;;;21.40;96.40;;;;;;5052733;28;19909;-71
2022/08/23 07:28:56;;;;;;;;;;;22.10;93.00;;;;;;5052160;28;19923;-73
2022/08/23 07:31:25;;;;;;;;;;;22.40;92.40;;;;;;5052332;28;19915;-73
2022/08/23 07:33:52;;;;;;;;;;;22.90;89.90;;;;;;5052105;28;19932;-74
2022/08/23 07:36:18;;;;;;;;;;;22.90;89.10;;;;;;5045476;28;19909;-74
2022/08/23 07:38:45;;;;;;;;;;;23.80;83.50;;;;;;5052444;28;19916;-74
2022/08/23 07:41:11;;;;;;;;;;;24.40;81.10;;;;;;5051368;28;19986;-75
2022/08/23 07:43:37;;;;;;;;;;;25.00;78.80;;;;;;5050796;28;19909;-75
2022/08/23 07:46:03;;;;;;;;;;;25.70;73.40;;;;;;5052558;28;19909;-75
2022/08/23 07:48:28;;;;;;;;;;;25.90;71.00;;;;;;5051996;28;20027;-74
2022/08/23 07:50:56;;;;;;;;;;;25.80;70.20;;;;;;5052125;28;19931;-74
2022/08/23 07:53:22;;;;;;;;;;;26.20;69.30;;;;;;5052399;28;19982;-74
2022/08/23 07:55:48;;;;;;;;;;;26.50;67.90;;;;;;5052484;28;19949;-74
2022/08/23 07:58:14;;;;;;;;;;;27.00;66.90;;;;;;5052438;28;19955;-73
2022/08/23 08:00:39;;;;;;;;;;;27.30;64.90;;;;;;5047592;28;19962;-75
2022/08/23 08:03:05;;;;;;;;;;;27.60;64.70;;;;;;5048508;28;20052;-74
2022/08/23 08:05:31;;;;;;;;;;;28.00;63.90;;;;;;5054366;28;19976;-75
2022/08/23 08:07:56;;;;;;;;;;;28.20;61.50;;;;;;5052273;28;20007;-75
2022/08/23 08:10:22;;;;;;;;;;;28.40;61.70;;;;;;5045791;28;19924;-75
2022/08/23 08:12:48;;;;;;;;;;;27.90;62.70;;;;;;5052800;28;20378;-74
2022/08/23 08:15:14;;;;;;;;;;;28.10;63.60;;;;;;5048120;28;20278;-74
2022/08/23 08:17:40;;;;;;;;;;;28.00;59.00;;;;;;5059086;28;19916;-73
2022/08/23 08:20:05;;;;;;;;;;;28.50;57.70;;;;;;5051798;28;19909;-75
2022/08/23 08:22:31;;;;;;;;;;;28.60;57.20;;;;;;5051746;28;19915;-75
2022/08/23 08:24:56;;;;;;;;;;;28.90;58.10;;;;;;5051484;28;19916;-75
2022/08/23 08:27:22;;;;;;;;;;;29.30;55.60;;;;;;5051473;28;19962;-73
2022/08/23 08:29:48;;;;;;;;;;;29.40;53.70;;;;;;5051279;28;19952;-75
2022/08/23 08:32:13;;;;;;;;;;;29.60;54.30;;;;;;5051288;28;19909;-75
2022/08/23 08:34:40;;;;;;;;;;;29.30;55.90;;;;;;5050850;28;19916;-74
2022/08/23 08:37:06;;;;;;;;;;;29.80;57.00;;;;;;5051347;28;19912;-75
2022/08/23 08:39:31;;;;;;;;;;;30.30;54.70;;;;;;5050693;28;19916;-75
2022/08/23 08:42:15;;;;;;;;;;;30.40;54.20;;;;;;5051425;28;19908;-74
2022/08/23 08:44:46;;;;;;;;;;;30.50;53.70;;;;;;5045563;28;20060;-74
2022/08/23 08:47:17;;;;;;;;;;;30.60;52.20;;;;;;5053369;28;19999;-74
2022/08/23 08:49:43;;;;;;;;;;;30.50;53.60;;;;;;5054129;28;19913;-74
2022/08/23 08:52:08;;;;;;;;;;;30.70;55.00;;;;;;5051047;28;19909;-73
2022/08/23 08:54:34;;;;;;;;;;;31.30;51.40;;;;;;5050993;28;20000;-74
2022/08/23 08:57:00;;;;;;;;;;;30.30;54.50;;;;;;5051226;28;19955;-75
2022/08/23 08:59:29;;;;;;;;;;;30.90;53.90;;;;;;5051195;28;19908;-74
2022/08/23 09:01:56;;;;;;;;;;;31.40;51.20;;;;;;5050968;28;20000;-73
2022/08/23 09:04:22;;;;;;;;;;;30.70;53.70;;;;;;5051126;28;20007;-75
2022/08/23 09:07:06;;;;;;;;;;;31.60;48.10;;;;;;5050673;28;19954;-74
2022/08/23 09:09:34;;;;;;;;;;;31.80;51.70;;;;;;5050613;28;19917;-75
2022/08/23 09:12:15;;;;;;;;;;;30.90;49.10;;;;;;5047329;28;19962;-73
2022/08/23 09:14:53;;;;;;;;;;;31.20;49.10;;;;;;5054733;28;19909;-74
2022/08/23 09:17:25;;;;;;;;;;;32.50;49.30;;;;;;5049580;28;20334;-75
2022/08/23 09:19:54;;;;;;;;;;;32.40;47.60;;;;;;5050759;28;19909;-75
2022/08/23 09:22:38;;;;;;;;;;;32.60;48.90;;;;;;5050996;28;19915;-74
2022/08/23 09:25:04;;;;;;;;;;;33.30;48.40;;;;;;5050465;28;19908;-75
2022/08/23 09:27:30;;;;;;;;;;;33.50;47.30;;;;;;5050644;28;19909;-74
2022/08/23 09:29:57;;;;;;;;;;;33.90;46.40;;;;;;5050741;28;20007;-75
2022/08/23 09:32:28;;;;;;;;;;;34.30;46.00;;;;;;5050749;28;20019;-75
2022/08/23 09:35:05;;;;;;;;;;;34.20;43.90;;;;;;5050457;28;19955;-75
2022/08/23 09:37:44;;;;;;;;;;;34.10;42.10;;;;;;5049663;28;19954;-75
2022/08/23 09:40:18;;;;;;;;;;;33.40;41.00;;;;;;5045076;28;20270;-75
2022/08/23 09:42:46;;;;;;;;;;;33.80;43.80;;;;;;5050326;28;19924;-73
2022/08/23 09:45:23;;;;;;;;;;;33.40;41.80;;;;;;5050160;28;19956;-74
2022/08/23 09:47:49;;;;;;;;;;;34.00;42.50;;;;;;5043288;28;19957;-75
2022/08/23 09:50:21;;;;;;;;;;;34.50;42.50;;;;;;5049276;28;19924;-75
2022/08/23 09:52:47;;;;;;;;;;;34.90;42.50;;;;;;5053487;28;19912;-75
2022/08/23 09:55:27;;;;;;;;;;;35.10;40.70;;;;;;5054309;28;20384;-75
2022/08/23 09:57:53;;;;;;;;;;;34.90;39.60;;;;;;5054792;28;19909;-75
2022/08/23 10:00:24;;;;;;;;;;;34.60;40.10;;;;;;5054525;28;19908;-74
2022/08/23 10:02:55;;;;;;;;;;;33.20;43.70;;;;;;5054378;28;20384;-75
2022/08/23 10:05:27;;;;;;;;;;;34.60;46.20;;;;;;5053079;28;20385;-75
2022/08/23 10:07:54;;;;;;;;;;;35.40;40.90;;;;;;5054416;28;19908;-75
2022/08/23 10:10:29;;;;;;;;;;;35.90;39.00;;;;;;5054082;28;19956;-75
2022/08/23 10:12:55;;;;;;;;;;;34.50;39.70;;;;;;5054236;28;20487;-75
2022/08/23 10:15:24;;;;;;;;;;;35.70;39.20;;;;;;5054085;28;19913;-75
2022/08/23 10:17:53;;;;;;;;;;;35.90;39.00;;;;;;5047004;28;19922;-75
2022/08/23 10:20:30;;;;;;;;;;;35.80;37.90;;;;;;5053876;28;20341;-74
2022/08/23 10:23:04;;;;;;;;;;;35.50;41.00;;;;;;5054133;28;19935;-75
2022/08/23 10:25:41;;;;;;;;;;;35.90;41.20;;;;;;5054099;28;19940;-75
2022/08/23 10:31:20;;;;;;;;;;;36.20;38.60;;;;;;5048798;28;20393;-73
2022/08/23 10:33:53;;;;;;;;;;;36.10;37.40;;;;;;5053492;28;19917;-75
2022/08/23 10:36:32;;;;;;;;;;;36.60;37.00;;;;;;5054090;28;19916;-75
2022/08/23 10:39:00;;;;;;;;;;;36.00;37.90;;;;;;5053776;28;19916;-75
2022/08/23 10:41:26;;;;;;;;;;;34.50;39.40;;;;;;5053692;28;19913;-75
2022/08/23 10:44:12;;;;;;;;;;;35.50;40.10;;;;;;5053252;28;19916;-76
2022/08/23 10:46:41;;;;;;;;;;;36.50;38.80;;;;;;5052159;28;20029;-75
2022/08/23 10:49:09;;;;;;;;;;;36.20;38.00;;;;;;5053426;28;20043;-75
2022/08/23 10:51:40;;;;;;;;;;;36.40;37.30;;;;;;5053298;28;19909;-75
2022/08/23 10:54:07;;;;;;;;;;;36.80;37.10;;;;;;5053120;28;19924;-75
2022/08/23 10:56:34;;;;;;;;;;;37.40;35.70;;;;;;5052943;28;19916;-73
2022/08/23 10:59:08;;;;;;;;;;;35.30;35.70;;;;;;5047423;28;19920;-75
2022/08/23 11:01:38;;;;;;;;;;;36.00;39.70;;;;;;5053135;28;20109;-75
2022/08/23 11:04:06;;;;;;;;;;;34.80;38.00;;;;;;5053185;28;19909;-74
2022/08/23 11:06:34;;;;;;;;;;;36.80;37.70;;;;;;5052645;28;19909;-75
2022/08/23 11:09:28;;;;;;;;;;;37.40;35.30;;;;;;5052728;28;20058;-75
2022/08/23 11:12:09;;;;;;;;;;;37.80;36.40;;;;;;5042731;28;19948;-75
2022/08/23 11:14:45;;;;;;;;;;;36.00;35.40;;;;;;5051317;28;19919;-75
2022/08/23 11:17:22;;;;;;;;;;;36.60;36.20;;;;;;5045101;28;19916;-75
2022/08/23 11:19:50;;;;;;;;;;;37.30;33.80;;;;;;5053637;28;19909;-75
2022/08/23 11:22:17;;;;;;;;;;;36.50;33.00;;;;;;5052916;28;19916;-75
2022/08/23 11:24:53;;;;;;;;;;;36.40;34.40;;;;;;5052730;28;19962;-74
2022/08/23 11:27:26;;;;;;;;;;;36.30;33.00;;;;;;5040980;28;19916;-75
2022/08/23 11:29:52;;;;;;;;;;;36.50;33.40;;;;;;5047026;28;19912;-75
2022/08/23 11:32:17;;;;;;;;;;;36.70;37.10;;;;;;5052297;28;19915;-75
2022/08/23 11:34:46;;;;;;;;;;;35.80;33.90;;;;;;5052211;28;19992;-74
2022/08/23 11:37:17;;;;;;;;;;;34.90;33.10;;;;;;5054212;28;19909;-74
2022/08/23 11:39:58;;;;;;;;;;;35.00;35.10;;;;;;5056753;28;19916;-73
2022/08/23 11:42:38;;;;;;;;;;;36.50;34.20;;;;;;5055990;28;19924;-74
2022/08/23 11:45:22;;;;;;;;;;;36.10;33.00;;;;;;5055482;28;19913;-75
2022/08/23 11:47:52;;;;;;;;;;;37.60;32.90;;;;;;5046574;28;19954;-75
2022/08/23 11:50:24;;;;;;;;;;;35.60;34.10;;;;;;5054855;28;19952;-75
2022/08/23 11:53:01;;;;;;;;;;;36.10;32.00;;;;;;5052725;28;19913;-75
2022/08/23 11:55:45;;;;;;;;;;;37.30;32.90;;;;;;5052198;28;19909;-73
2022/08/23 11:58:17;;;;;;;;;;;37.00;32.40;;;;;;5051420;28;19916;-73
2022/08/23 12:01:01;;;;;;;;;;;36.70;34.00;;;;;;5050616;28;19912;-75
2022/08/23 12:03:33;;;;;;;;;;;35.60;34.90;;;;;;5053377;28;19909;-80
2022/08/23 12:06:04;;;;;;;;;;;35.50;35.70;;;;;;5052668;28;19909;-74
2022/08/23 12:08:45;;;;;;;;;;;36.70;33.40;;;;;;5051966;28;19913;-74
2022/08/23 12:11:10;;;;;;;;;;;35.70;32.60;;;;;;5051766;28;19974;-74
2022/08/23 12:13:45;;;;;;;;;;;34.20;36.40;;;;;;5054550;28;20370;-75
2022/08/23 12:16:15;;;;;;;;;;;35.60;35.20;;;;;;5053300;28;20358;-74
2022/08/23 12:18:51;;;;;;;;;;;36.50;34.00;;;;;;5051377;28;19915;-75
2022/08/23 12:21:35;;;;;;;;;;;36.10;33.90;;;;;;5056442;28;19916;-75
2022/08/23 12:24:12;;;;;;;;;;;35.80;31.80;;;;;;5047069;28;20027;-74
2022/08/23 12:26:37;;;;;;;;;;;36.10;34.00;;;;;;5051498;28;19951;-74
2022/08/23 12:29:06;;;;;;;;;;;35.20;33.30;;;;;;5051323;28;20460;-74
2022/08/23 12:31:34;;;;;;;;;;;35.00;34.40;;;;;;5045658;28;19983;-74
2022/08/23 12:34:20;;;;;;;;;;;35.50;32.80;;;;;;5051071;28;20138;-74
2022/08/23 12:36:49;;;;;;;;;;;35.80;34.50;;;;;;5051195;28;19913;-73
2022/08/23 12:39:40;;;;;;;;;;;34.20;34.80;;;;;;5051188;28;20000;-73
2022/08/23 12:42:14;;;;;;;;;;;35.10;36.30;;;;;;5050053;28;19909;-72
2022/08/23 12:44:40;;;;;;;;;;;35.50;34.50;;;;;;5049401;28;19909;-74
2022/08/23 12:47:10;;;;;;;;;;;35.10;34.30;;;;;;5051051;28;19912;-74
2022/08/23 12:49:36;;;;;;;;;;;36.00;33.40;;;;;;5053742;28;19917;-74
2022/08/23 12:52:05;;;;;;;;;;;36.30;33.60;;;;;;5048568;28;19971;-74
2022/08/23 12:54:36;;;;;;;;;;;37.20;32.60;;;;;;5049402;28;20186;-73
2022/08/23 12:57:08;;;;;;;;;;;36.90;31.70;;;;;;5046474;28;19948;-74
2022/08/23 12:59:36;;;;;;;;;;;35.10;34.60;;;;;;5051286;28;19916;-74
2022/08/23 13:02:04;;;;;;;;;;;35.30;35.40;;;;;;5053448;28;19909;-73
2022/08/23 13:04:31;;;;;;;;;;;32.60;36.40;;;;;;5051053;28;19908;-74
2022/08/23 13:06:58;;;;;;;;;;;31.50;38.30;;;;;;5050590;28;19995;-74
2022/08/23 13:09:27;;;;;;;;;;;30.30;41.90;;;;;;5050609;28;19995;-74
2022/08/23 13:11:53;;;;;;;;;;;30.00;41.70;;;;;;5045165;28;19914;-75
2022/08/23 13:14:21;;;;;;;;;;;29.00;44.10;;;;;;5059390;28;19944;-75
2022/08/23 13:16:47;;;;;;;;;;;28.40;43.10;;;;;;5051137;28;19908;-73
2022/08/23 13:19:24;;;;;;;;;;;28.30;46.00;;;;;;5050708;28;19909;-75
2022/08/23 13:22:08;;;;;;;;;;;28.30;45.40;;;;;;5050788;28;19956;-75
2022/08/23 13:24:35;;;;;;;;;;;28.20;48.30;;;;;;5053632;28;20425;-75
2022/08/23 13:27:10;;;;;;;;;;;28.20;45.70;;;;;;5048427;28;19909;-74
2022/08/23 13:29:47;;;;;;;;;;;28.10;45.60;;;;;;5052745;28;20282;-74
2022/08/23 13:32:27;;;;;;;;;;;28.00;45.70;;;;;;5065366;28;20358;-75
2022/08/23 13:34:55;;;;;;;;;;;27.90;46.50;;;;;;5054805;28;19908;-75
2022/08/23 13:37:20;;;;;;;;;;;27.90;46.40;;;;;;5055062;28;19909;-75
2022/08/23 13:39:47;;;;;;;;;;;27.60;45.30;;;;;;5054991;28;19909;-74
2022/08/23 13:42:14;;;;;;;;;;;27.70;47.90;;;;;;5054840;28;19915;-74
2022/08/23 13:44:41;;;;;;;;;;;27.80;47.50;;;;;;5054643;28;19909;-75
2022/08/23 13:47:18;;;;;;;;;;;27.70;47.00;;;;;;5054124;28;20262;-75
2022/08/23 13:49:43;;;;;;;;;;;27.60;47.00;;;;;;5054346;28;20144;-74
2022/08/23 13:52:12;;;;;;;;;;;27.80;48.50;;;;;;5052938;28;19909;-75
2022/08/23 13:54:37;;;;;;;;;;;27.80;47.60;;;;;;5057606;28;19962;-75
2022/08/23 13:57:06;;;;;;;;;;;27.60;46.50;;;;;;5054280;28;20003;-75
2022/08/23 13:59:37;;;;;;;;;;;27.60;50.40;;;;;;5054147;28;19909;-74
2022/08/23 14:02:07;;;;;;;;;;;28.00;47.40;;;;;;5047228;28;20362;-74
2022/08/23 14:04:33;;;;;;;;;;;30.70;42.50;;;;;;5050448;28;20262;-74
2022/08/23 14:06:58;;;;;;;;;;;34.30;35.80;;;;;;5053905;28;19915;-73
2022/08/23 14:09:24;;;;;;;;;;;35.20;34.30;;;;;;5054080;28;19917;-75
2022/08/23 14:11:53;;;;;;;;;;;35.70;36.70;;;;;;5050933;28;19908;-75
2022/08/23 14:14:19;;;;;;;;;;;36.20;35.00;;;;;;5051078;28;19935;-74
2022/08/23 14:16:44;;;;;;;;;;;36.20;34.90;;;;;;5054089;28;19909;-72
2022/08/23 14:19:10;;;;;;;;;;;35.50;34.80;;;;;;5053942;28;20377;-75
2022/08/23 14:21:36;;;;;;;;;;;35.20;35.20;;;;;;5054039;28;20305;-75
2022/08/23 14:24:02;;;;;;;;;;;36.10;35.80;;;;;;5051741;28;19944;-75
2022/08/23 14:26:28;;;;;;;;;;;35.70;35.10;;;;;;5059754;28;19924;-75
2022/08/23 14:28:53;;;;;;;;;;;35.00;36.00;;;;;;5054064;28;19908;-75
2022/08/23 14:31:19;;;;;;;;;;;35.70;36.60;;;;;;5053428;28;19913;-74
2022/08/23 14:33:45;;;;;;;;;;;35.90;35.00;;;;;;5053504;28;20000;-75